Time;durP1;ratioP1;P1;durP2;ratioP2;P2;SDS_P1;SDS_P2;PMS_P1;PMS_P2;Temp;Humidity;BMP_temperature;BMP_pressure;BME280_temperature;BME280_humidity;BME280_pressure;Samples;Min_cycle;Max_cycle;Signal;HPM_P1;HPM_P2
2023/04/14 00:01:28;;;;;;;3.30;1.50;;;4.30;99.90;;;;;;5034584;28;20283;-45
2023/04/14 00:03:54;;;;;;;3.37;1.50;;;4.20;99.90;;;;;;5034837;28;20189;-44
2023/04/14 00:06:20;;;;;;;3.00;1.70;;;4.20;99.90;;;;;;5034438;28;20181;-46
2023/04/14 00:08:45;;;;;;;2.47;1.47;;;4.20;99.90;;;;;;5034462;28;20195;-45
2023/04/14 00:11:11;;;;;;;1.87;1.37;;;4.10;99.90;;;;;;5034620;28;20208;-46
2023/04/14 00:13:36;;;;;;;3.10;1.40;;;4.10;99.90;;;;;;5034918;28;20199;-46
2023/04/14 00:16:02;;;;;;;4.07;1.70;;;4.10;99.90;;;;;;5034581;28;20667;-46
2023/04/14 00:18:28;;;;;;;3.60;1.50;;;4.00;99.90;;;;;;5034482;28;20195;-47
2023/04/14 00:20:53;;;;;;;3.17;1.70;;;4.00;99.90;;;;;;5034166;28;20532;-48
2023/04/14 00:23:19;;;;;;;4.60;1.60;;;3.90;99.90;;;;;;5034346;28;20193;-46
2023/04/14 00:25:46;;;;;;;4.53;1.50;;;3.90;99.90;;;;;;5034367;28;20191;-46
2023/04/14 00:28:11;;;;;;;4.43;1.50;;;3.90;99.90;;;;;;5034179;28;20179;-46
2023/04/14 00:30:37;;;;;;;3.23;1.50;;;3.80;99.90;;;;;;5034401;28;20241;-44
2023/04/14 00:33:02;;;;;;;7.53;2.40;;;3.80;99.90;;;;;;5034038;28;20211;-44
2023/04/14 00:35:28;;;;;;;3.40;1.73;;;3.70;99.90;;;;;;5034122;28;20193;-46
2023/04/14 00:37:55;;;;;;;4.10;1.40;;;3.70;99.90;;;;;;5033969;28;20525;-46
2023/04/14 00:40:21;;;;;;;5.30;1.40;;;3.70;99.90;;;;;;5033727;28;20675;-46
2023/04/14 00:42:47;;;;;;;3.93;1.33;;;3.60;99.90;;;;;;5034033;28;20213;-43
2023/04/14 00:45:13;;;;;;;4.90;1.53;;;3.60;99.90;;;;;;5033941;28;20175;-44
2023/04/14 00:47:41;;;;;;;3.00;1.57;;;3.60;99.90;;;;;;5034046;28;20179;-45
2023/04/14 00:50:08;;;;;;;3.53;1.57;;;3.50;99.90;;;;;;5033668;28;20199;-46
2023/04/14 00:52:36;;;;;;;2.33;1.47;;;3.50;99.90;;;;;;5033724;28;20204;-44
2023/04/14 00:55:03;;;;;;;4.23;1.33;;;3.50;99.90;;;;;;5033875;28;20194;-43
2023/04/14 00:57:30;;;;;;;5.50;1.77;;;3.50;99.90;;;;;;5033861;28;20237;-45
2023/04/14 00:59:57;;;;;;;6.17;1.90;;;3.40;99.90;;;;;;5033781;28;20207;-43
2023/04/14 01:02:24;;;;;;;5.73;1.43;;;3.40;99.90;;;;;;5033533;28;20277;-45
2023/04/14 01:04:50;;;;;;;6.60;1.50;;;3.40;99.90;;;;;;5033768;28;20192;-45
2023/04/14 01:07:20;;;;;;;7.60;1.80;;;3.30;99.90;;;;;;5033766;28;20178;-44
2023/04/14 01:09:46;;;;;;;4.87;1.70;;;3.40;99.90;;;;;;5032556;28;20174;-45
2023/04/14 01:12:47;;;;;;;8.67;2.20;;;3.30;99.90;;;;;;5033397;28;20209;-46
2023/04/14 01:15:25;;;;;;;2.70;1.40;;;3.30;99.90;;;;;;5033375;28;20185;-44
2023/04/14 01:18:13;;;;;;;2.20;1.40;;;3.30;99.90;;;;;;5033718;28;20172;-43
2023/04/14 01:20:51;;;;;;;2.47;1.50;;;3.30;99.90;;;;;;5033310;28;20686;-43
2023/04/14 01:23:28;;;;;;;2.40;1.20;;;3.30;99.90;;;;;;5033162;28;20229;-45
2023/04/14 01:26:27;;;;;;;3.03;1.50;;;3.20;99.90;;;;;;5033622;28;20161;-45
2023/04/14 01:29:11;;;;;;;4.63;1.40;;;3.20;99.90;;;;;;5033901;28;20597;-45
2023/04/14 01:31:44;;;;;;;5.03;1.50;;;3.10;99.90;;;;;;5033503;28;20201;-44
2023/04/14 01:34:22;;;;;;;2.20;1.43;;;3.10;99.90;;;;;;5033559;28;20176;-44
2023/04/14 01:37:05;;;;;;;5.30;1.70;;;3.10;99.90;;;;;;5033629;28;20163;-44
2023/04/14 01:39:35;;;;;;;5.70;1.60;;;3.00;99.90;;;;;;5033380;28;20218;-43
2023/04/14 01:42:06;;;;;;;3.30;1.30;;;3.00;99.90;;;;;;5033317;28;20313;-45
2023/04/14 01:44:33;;;;;;;2.47;1.37;;;3.00;99.90;;;;;;5033470;28;20161;-44
2023/04/14 01:47:03;;;;;;;5.63;1.63;;;2.90;99.90;;;;;;5033435;28;20205;-43
2023/04/14 01:49:30;;;;;;;4.57;1.70;;;2.90;99.90;;;;;;5015757;28;20207;-43
2023/04/14 01:51:56;;;;;;;3.07;1.33;;;2.90;99.90;;;;;;5015395;28;20204;-44
2023/04/14 01:54:23;;;;;;;4.33;1.40;;;2.90;99.90;;;;;;5033206;28;20178;-44
2023/04/14 01:56:51;;;;;;;3.03;1.43;;;2.80;99.90;;;;;;5033274;28;20653;-44
2023/04/14 01:59:19;;;;;;;2.53;1.40;;;2.80;99.90;;;;;;5033361;28;20238;-45
2023/04/14 02:01:48;;;;;;;3.40;1.70;;;2.80;99.90;;;;;;5033543;28;20204;-43
2023/04/14 02:04:15;;;;;;;4.53;1.27;;;2.70;99.90;;;;;;5033343;28;20177;-45
2023/04/14 02:06:41;;;;;;;4.00;1.53;;;2.70;99.90;;;;;;5033370;28;20185;-44
2023/04/14 02:09:11;;;;;;;1.80;1.30;;;2.70;99.90;;;;;;5033325;28;20230;-45
2023/04/14 02:11:38;;;;;;;3.30;1.63;;;2.60;99.90;;;;;;5033678;28;20201;-44
2023/04/14 02:14:06;;;;;;;4.80;1.50;;;2.60;99.90;;;;;;5033736;28;20217;-45
2023/04/14 02:16:35;;;;;;;2.23;1.10;;;2.60;99.90;;;;;;5033662;28;20184;-46
2023/04/14 02:19:03;;;;;;;2.57;1.47;;;2.60;99.90;;;;;;5034181;28;20263;-46
2023/04/14 02:21:30;;;;;;;5.63;1.53;;;2.50;99.90;;;;;;5038948;28;20201;-45
2023/04/14 02:23:55;;;;;;;3.37;1.10;;;2.50;99.90;;;;;;5043021;28;20200;-45
2023/04/14 02:26:25;;;;;;;2.13;1.17;;;2.50;99.90;;;;;;5038002;28;20638;-45
2023/04/14 02:29:05;;;;;;;2.03;1.00;;;2.40;99.90;;;;;;5036961;28;20243;-47
2023/04/14 02:31:33;;;;;;;5.10;1.50;;;2.40;99.90;;;;;;5036786;28;20204;-48
2023/04/14 02:34:01;;;;;;;2.77;1.10;;;2.40;99.90;;;;;;5036288;28;20182;-47
2023/04/14 02:36:33;;;;;;;2.40;1.20;;;2.30;99.90;;;;;;5036319;28;20227;-45
2023/04/14 02:39:03;;;;;;;4.33;1.40;;;2.30;99.90;;;;;;5036477;28;20200;-43
2023/04/14 02:41:30;;;;;;;2.63;1.40;;;2.30;99.90;;;;;;5036442;28;20673;-43
2023/04/14 02:44:09;;;;;;;3.20;1.50;;;2.20;99.90;;;;;;5036070;28;20261;-45
2023/04/14 02:46:39;;;;;;;6.43;1.57;;;2.20;99.90;;;;;;5036659;28;20183;-45
2023/04/14 02:49:06;;;;;;;3.37;1.67;;;2.20;99.90;;;;;;5036186;28;20197;-44
2023/04/14 02:51:35;;;;;;;4.03;1.23;;;2.20;99.90;;;;;;5036105;28;20189;-43
2023/04/14 02:54:02;;;;;;;4.17;1.50;;;2.20;99.90;;;;;;5036125;28;20303;-46
2023/04/14 02:56:28;;;;;;;4.50;1.60;;;2.10;99.90;;;;;;5035869;28;20196;-46
2023/04/14 02:58:54;;;;;;;3.10;1.40;;;2.10;99.90;;;;;;5018109;28;20583;-44
2023/04/14 03:01:20;;;;;;;3.37;1.37;;;2.10;99.90;;;;;;5035704;28;20280;-44
2023/04/14 03:03:47;;;;;;;3.33;2.10;;;2.10;99.90;;;;;;5036104;28;20189;-44
2023/04/14 03:06:14;;;;;;;6.23;1.80;;;2.10;99.90;;;;;;5036354;28;20181;-45
2023/04/14 03:08:41;;;;;;;4.13;1.73;;;2.10;99.90;;;;;;5035674;28;20546;-45
2023/04/14 03:11:08;;;;;;;4.17;1.40;;;2.00;99.90;;;;;;5035556;28;20181;-45
2023/04/14 03:13:34;;;;;;;5.00;1.40;;;2.00;99.90;;;;;;5036071;28;20246;-44
2023/04/14 03:16:02;;;;;;;4.57;1.50;;;2.00;99.90;;;;;;5035529;28;20594;-45
2023/04/14 03:18:30;;;;;;;7.07;1.20;;;2.00;99.90;;;;;;5035608;28;20185;-43
2023/04/14 03:20:59;;;;;;;1.90;1.20;;;2.00;99.90;;;;;;5035267;28;20255;-47
2023/04/14 03:23:25;;;;;;;3.07;1.13;;;1.90;99.90;;;;;;5035305;28;20629;-44
2023/04/14 03:25:52;;;;;;;3.40;1.13;;;1.90;99.90;;;;;;5035789;28;20196;-43
2023/04/14 03:28:22;;;;;;;5.43;1.50;;;1.90;99.90;;;;;;5035254;28;20172;-45
2023/04/14 03:30:50;;;;;;;2.40;1.20;;;1.90;99.90;;;;;;5035406;28;20217;-46
2023/04/14 03:33:20;;;;;;;1.80;1.20;;;1.90;99.90;;;;;;5034093;28;20200;-46
2023/04/14 03:35:46;;;;;;;5.43;1.80;;;1.90;99.90;;;;;;5035386;28;20189;-45
2023/04/14 03:38:15;;;;;;;2.40;1.30;;;1.80;99.90;;;;;;5017394;28;20265;-44
2023/04/14 03:40:43;;;;;;;4.07;1.60;;;1.80;99.90;;;;;;5035328;28;20192;-44
2023/04/14 03:43:11;;;;;;;2.60;1.33;;;1.80;99.90;;;;;;5035272;28;20216;-48
2023/04/14 03:45:42;;;;;;;5.73;1.23;;;1.70;99.90;;;;;;5036528;28;20173;-44
2023/04/14 03:48:10;;;;;;;3.70;1.77;;;1.70;99.90;;;;;;5036372;28;20161;-45
2023/04/14 03:50:41;;;;;;;2.13;1.50;;;1.70;99.90;;;;;;5036715;28;20212;-45
2023/04/14 03:53:11;;;;;;;4.23;1.50;;;1.70;99.90;;;;;;5034878;28;20197;-46
2023/04/14 03:55:39;;;;;;;4.27;1.60;;;1.60;99.90;;;;;;5035082;28;20173;-47
2023/04/14 03:58:07;;;;;;;6.40;1.87;;;1.60;99.90;;;;;;5034776;28;20239;-46
2023/04/14 04:00:33;;;;;;;3.20;1.10;;;1.60;99.90;;;;;;5035049;28;20698;-46
2023/04/14 04:03:00;;;;;;;3.80;1.60;;;1.60;99.90;;;;;;5034907;28;20197;-46
2023/04/14 04:05:26;;;;;;;7.00;1.60;;;1.60;99.90;;;;;;5034852;28;20199;-47
2023/04/14 04:07:54;;;;;;;3.47;1.40;;;1.60;99.90;;;;;;5034653;28;20205;-46
2023/04/14 04:10:20;;;;;;;2.47;1.50;;;1.60;99.90;;;;;;5034416;28;20261;-47
2023/04/14 04:12:47;;;;;;;4.80;1.30;;;1.60;99.90;;;;;;5016552;28;20204;-46
2023/04/14 04:15:13;;;;;;;5.93;1.77;;;1.60;99.90;;;;;;5034740;28;20185;-47
2023/04/14 04:17:40;;;;;;;3.27;1.57;;;1.60;99.90;;;;;;5034362;28;20172;-46
2023/04/14 04:20:10;;;;;;;6.67;2.10;;;1.60;99.90;;;;;;5034205;28;20197;-45
2023/04/14 04:22:38;;;;;;;3.63;1.33;;;1.50;99.90;;;;;;5034188;28;20208;-46
2023/04/14 04:25:05;;;;;;;6.13;2.00;;;1.50;99.90;;;;;;5034098;28;20648;-46
2023/04/14 04:27:32;;;;;;;4.87;1.53;;;1.50;99.90;;;;;;5034506;28;20192;-47
2023/04/14 04:29:58;;;;;;;3.03;1.40;;;1.50;99.90;;;;;;5034355;28;20211;-46
2023/04/14 04:32:24;;;;;;;4.47;1.53;;;1.50;99.90;;;;;;5034061;28;20208;-45
2023/04/14 04:34:51;;;;;;;4.13;1.57;;;1.50;99.90;;;;;;5034330;28;20189;-46
2023/04/14 04:37:18;;;;;;;8.37;2.03;;;1.50;99.90;;;;;;5034335;28;20544;-46
2023/04/14 04:39:44;;;;;;;7.47;1.60;;;1.40;99.90;;;;;;5034102;28;20267;-45
2023/04/14 04:42:10;;;;;;;2.03;1.40;;;1.40;99.90;;;;;;5034171;28;20259;-45
2023/04/14 04:44:35;;;;;;;4.20;1.53;;;1.40;99.90;;;;;;5033732;28;20268;-46
2023/04/14 04:47:01;;;;;;;3.80;1.50;;;1.40;99.90;;;;;;5034103;28;20181;-46
2023/04/14 04:49:27;;;;;;;7.30;1.87;;;1.40;99.90;;;;;;5033755;28;20207;-45
2023/04/14 04:51:53;;;;;;;4.27;2.60;;;1.40;99.90;;;;;;5033749;28;20204;-45
2023/04/14 04:54:19;;;;;;;4.87;1.80;;;1.30;99.90;;;;;;5016152;28;20184;-46
2023/04/14 04:56:45;;;;;;;2.83;1.67;;;1.30;99.90;;;;;;5033846;28;20638;-44
2023/04/14 04:59:11;;;;;;;4.20;1.80;;;1.40;99.90;;;;;;5034073;28;20246;-45
2023/04/14 05:01:36;;;;;;;3.33;1.50;;;1.40;99.90;;;;;;5033681;28;20196;-45
2023/04/14 05:04:02;;;;;;;5.53;1.87;;;1.40;99.90;;;;;;5034240;28;20185;-44
2023/04/14 05:06:28;;;;;;;5.13;2.00;;;1.40;99.90;;;;;;5033877;28;20184;-46
2023/04/14 05:08:54;;;;;;;4.90;2.10;;;1.40;99.90;;;;;;5034499;28;20572;-44
2023/04/14 05:11:20;;;;;;;6.43;1.87;;;1.40;99.90;;;;;;5036408;28;20207;-46
2023/04/14 05:13:45;;;;;;;4.77;2.27;;;1.40;99.90;;;;;;5044626;28;20181;-47
2023/04/14 05:16:15;;;;;;;4.57;1.67;;;1.40;99.90;;;;;;5048853;28;20181;-46
2023/04/14 05:18:41;;;;;;;4.53;1.90;;;1.50;99.90;;;;;;5034448;28;20248;-46
2023/04/14 05:21:10;;;;;;;6.97;1.97;;;1.50;99.90;;;;;;5015741;28;20286;-44
2023/04/14 05:23:36;;;;;;;7.83;2.13;;;1.50;99.90;;;;;;5034427;28;20193;-43
2023/04/14 05:26:03;;;;;;;5.77;1.90;;;1.50;99.90;;;;;;5034122;28;20177;-46
2023/04/14 05:28:29;;;;;;;3.97;1.60;;;1.60;99.90;;;;;;5033786;28;20184;-45
2023/04/14 05:30:55;;;;;;;6.83;1.90;;;1.60;99.90;;;;;;5033616;28;20268;-45
2023/04/14 05:33:21;;;;;;;7.77;2.40;;;1.60;99.90;;;;;;5033861;28;20207;-47
2023/04/14 05:35:47;;;;;;;7.47;2.10;;;1.60;99.90;;;;;;5034213;28;20226;-44
2023/04/14 05:38:13;;;;;;;6.07;1.90;;;1.70;99.90;;;;;;5033579;28;20176;-45
2023/04/14 05:40:39;;;;;;;5.73;2.00;;;1.70;99.90;;;;;;5033572;28;20191;-45
2023/04/14 05:43:05;;;;;;;5.93;1.90;;;1.70;99.90;;;;;;5033288;28;20207;-47
2023/04/14 05:45:30;;;;;;;5.97;1.80;;;1.80;99.90;;;;;;5033725;28;20540;-46
2023/04/14 05:47:56;;;;;;;6.53;1.87;;;1.90;99.90;;;;;;5034097;28;20191;-46
2023/04/14 05:50:21;;;;;;;4.70;1.60;;;1.90;99.90;;;;;;5033892;28;20204;-45
2023/04/14 05:52:50;;;;;;;6.20;2.30;;;2.00;99.90;;;;;;5033252;28;20232;-46
2023/04/14 05:55:17;;;;;;;5.30;2.20;;;2.10;99.90;;;;;;5034019;28;20583;-46
2023/04/14 05:57:43;;;;;;;6.17;2.20;;;2.20;99.90;;;;;;5037368;28;20530;-46
2023/04/14 06:00:11;;;;;;;7.20;2.57;;;2.30;99.90;;;;;;5037224;28;20176;-45
2023/04/14 06:02:40;;;;;;;7.50;2.60;;;2.40;99.90;;;;;;5037055;28;20395;-46
2023/04/14 06:05:06;;;;;;;7.07;2.27;;;2.50;99.90;;;;;;5036886;28;20177;-46
2023/04/14 06:07:35;;;;;;;10.33;2.73;;;2.60;99.90;;;;;;5036805;28;20185;-46
2023/04/14 06:10:01;;;;;;;7.00;2.53;;;2.70;99.90;;;;;;5036582;28;20779;-45
2023/04/14 06:12:27;;;;;;;4.73;2.50;;;2.70;99.90;;;;;;5036610;28;20193;-45
2023/04/14 06:14:53;;;;;;;7.67;2.60;;;2.90;99.90;;;;;;5036795;28;20641;-46
2023/04/14 06:17:18;;;;;;;5.70;2.37;;;3.00;99.90;;;;;;5036549;28;20191;-47
2023/04/14 06:19:46;;;;;;;3.50;2.07;;;3.20;99.90;;;;;;5036937;28;20188;-45
2023/04/14 06:22:15;;;;;;;7.83;3.03;;;3.50;99.90;;;;;;5036674;28;20200;-48
2023/04/14 06:24:41;;;;;;;7.83;2.47;;;3.90;99.90;;;;;;5036547;28;20184;-45
2023/04/14 06:27:08;;;;;;;8.53;3.00;;;4.20;99.90;;;;;;5036616;28;20177;-47
2023/04/14 06:29:34;;;;;;;7.63;2.70;;;4.50;99.90;;;;;;5036658;28;20234;-46
2023/04/14 06:32:00;;;;;;;11.27;2.90;;;4.90;99.90;;;;;;5036801;28;20209;-47
2023/04/14 06:34:25;;;;;;;9.00;2.70;;;5.10;99.90;;;;;;5036862;28;20183;-47
2023/04/14 06:36:51;;;;;;;8.50;2.93;;;5.40;99.90;;;;;;5037536;28;20256;-46
2023/04/14 06:39:18;;;;;;;9.47;3.63;;;5.60;99.90;;;;;;5036970;28;20212;-46
2023/04/14 06:41:44;;;;;;;8.73;3.00;;;5.80;99.90;;;;;;5036581;28;20212;-46
2023/04/14 06:44:10;;;;;;;12.57;3.60;;;6.00;99.90;;;;;;5036415;28;20207;-45
2023/04/14 06:46:35;;;;;;;13.70;3.47;;;6.30;99.90;;;;;;5036181;28;20221;-47
2023/04/14 06:49:02;;;;;;;13.23;2.90;;;6.50;99.90;;;;;;5035922;28;20209;-45
2023/04/14 06:51:28;;;;;;;7.33;1.93;;;6.70;99.90;;;;;;5036148;28;20205;-46
2023/04/14 06:53:54;;;;;;;9.70;2.87;;;6.90;99.90;;;;;;5036198;28;20667;-45
2023/04/14 06:56:19;;;;;;;6.80;2.40;;;7.10;99.90;;;;;;5036077;28;20185;-44
2023/04/14 06:58:45;;;;;;;5.73;2.03;;;7.30;99.90;;;;;;5035812;28;20267;-47
2023/04/14 07:01:10;;;;;;;4.87;2.27;;;7.60;99.90;;;;;;5036000;28;20223;-46
2023/04/14 07:03:37;;;;;;;8.30;2.40;;;7.70;99.90;;;;;;5036159;28;20545;-45
2023/04/14 07:06:04;;;;;;;3.90;2.07;;;8.00;99.90;;;;;;5035688;28;20317;-46
2023/04/14 07:08:31;;;;;;;6.13;2.47;;;8.30;99.90;;;;;;5035655;28;20195;-45
2023/04/14 07:11:09;;;;;;;10.20;3.30;;;8.50;99.90;;;;;;5018462;28;20255;-46
2023/04/14 07:13:35;;;;;;;4.60;1.93;;;8.80;99.90;;;;;;5035510;28;20319;-45
2023/04/14 07:16:02;;;;;;;5.40;2.10;;;9.10;99.90;;;;;;5035477;28;20644;-46
2023/04/14 07:18:29;;;;;;;4.20;2.00;;;9.20;99.90;;;;;;5035471;28;20184;-46
2023/04/14 07:20:54;;;;;;;11.93;2.20;;;9.30;99.90;;;;;;5035293;28;20314;-48
2023/04/14 07:23:21;;;;;;;6.93;2.10;;;9.40;99.90;;;;;;5035909;28;20216;-47
2023/04/14 07:25:51;;;;;;;5.13;2.30;;;9.60;99.90;;;;;;5035645;28;20192;-46
2023/04/14 07:28:17;;;;;;;10.03;2.33;;;9.80;99.90;;;;;;5035244;28;20185;-46
2023/04/14 07:30:43;;;;;;;6.33;2.07;;;10.00;99.90;;;;;;5035207;28;20283;-47
2023/04/14 07:33:09;;;;;;;9.50;2.20;;;10.00;99.90;;;;;;5035544;28;20622;-45
2023/04/14 07:35:34;;;;;;;5.57;2.30;;;10.10;99.90;;;;;;5035472;28;20174;-46
2023/04/14 07:38:00;;;;;;;12.00;2.87;;;10.20;99.90;;;;;;5035375;28;20653;-45
2023/04/14 07:40:25;;;;;;;8.23;1.60;;;11.50;99.90;;;;;;5035136;28;20187;-48
2023/04/14 07:42:51;;;;;;;6.03;2.10;;;10.40;99.90;;;;;;5035010;28;20199;-46
2023/04/14 07:45:17;;;;;;;9.20;2.67;;;10.50;99.90;;;;;;5035061;28;20182;-46
2023/04/14 07:47:42;;;;;;;9.83;2.50;;;10.70;99.90;;;;;;5035496;28;20175;-46
2023/04/14 07:50:08;;;;;;;10.73;2.80;;;10.80;99.90;;;;;;5034814;28;20203;-48
2023/04/14 07:52:34;;;;;;;8.20;2.30;;;10.90;99.90;;;;;;5035031;28;20196;-47
2023/04/14 07:54:59;;;;;;;8.77;2.00;;;11.00;99.90;;;;;;5035117;28;20207;-47
2023/04/14 07:57:25;;;;;;;5.70;1.77;;;11.20;99.90;;;;;;5034784;28;20203;-46
2023/04/14 07:59:50;;;;;;;8.20;1.70;;;11.30;99.90;;;;;;5034716;28;20187;-49
2023/04/14 08:02:16;;;;;;;3.97;1.60;;;11.30;99.90;;;;;;5035748;28;20254;-48
2023/04/14 08:04:43;;;;;;;7.00;1.83;;;11.30;99.90;;;;;;5034961;28;20176;-47
2023/04/14 08:07:08;;;;;;;10.83;2.50;;;11.30;99.90;;;;;;5034643;28;20209;-47
2023/04/14 08:09:34;;;;;;;5.70;1.80;;;11.40;99.90;;;;;;5035109;28;20247;-48
2023/04/14 08:12:00;;;;;;;7.17;1.73;;;11.50;99.90;;;;;;5034681;28;20200;-47
2023/04/14 08:14:25;;;;;;;4.57;2.10;;;11.50;99.90;;;;;;5034958;28;20184;-49
2023/04/14 08:16:51;;;;;;;6.27;1.40;;;11.60;99.90;;;;;;5035434;28;20259;-48
2023/04/14 08:19:17;;;;;;;5.27;1.60;;;11.80;99.90;;;;;;5038642;28;20185;-47
2023/04/14 08:21:42;;;;;;;6.27;1.60;;;12.00;99.90;;;;;;5048481;28;20216;-48
2023/04/14 08:24:08;;;;;;;6.30;1.33;;;12.20;99.90;;;;;;5047332;28;20274;-49
2023/04/14 08:26:33;;;;;;;5.50;1.87;;;12.40;99.90;;;;;;5035169;28;20209;-48
2023/04/14 08:28:59;;;;;;;6.83;1.67;;;12.50;99.90;;;;;;5016798;28;20254;-48
2023/04/14 08:31:25;;;;;;;7.40;2.00;;;12.60;99.90;;;;;;5034471;28;20201;-49
2023/04/14 08:33:51;;;;;;;4.70;1.97;;;12.60;99.90;;;;;;5034675;28;20177;-49
2023/04/14 08:36:17;;;;;;;8.03;1.77;;;12.80;99.90;;;;;;5034710;28;20205;-48
2023/04/14 08:38:43;;;;;;;6.37;1.83;;;12.80;99.90;;;;;;5034190;28;20204;-48
2023/04/14 08:41:12;;;;;;;5.93;1.40;;;12.90;99.90;;;;;;5034656;28;20177;-48
2023/04/14 08:43:37;;;;;;;7.80;1.50;;;13.00;99.90;;;;;;5035002;28;20187;-48
2023/04/14 08:46:03;;;;;;;4.63;1.30;;;13.10;99.90;;;;;;5034426;28;20185;-49
2023/04/14 08:48:30;;;;;;;8.07;1.67;;;13.10;99.90;;;;;;5034860;28;20260;-48
2023/04/14 08:51:15;;;;;;;6.27;1.93;;;13.30;99.90;;;;;;5016927;28;20691;-48
2023/04/14 08:53:44;;;;;;;4.13;1.50;;;13.30;99.90;;;;;;5035019;28;20568;-49
2023/04/14 08:56:11;;;;;;;6.20;1.97;;;13.30;99.90;;;;;;5034164;28;20268;-48
2023/04/14 08:58:37;;;;;;;8.07;1.83;;;13.40;99.90;;;;;;5033770;28;20192;-48
2023/04/14 09:01:03;;;;;;;2.53;1.17;;;13.40;99.90;;;;;;5033687;28;20181;-49
2023/04/14 09:03:29;;;;;;;8.13;1.10;;;13.50;99.90;;;;;;5033977;28;20276;-48
2023/04/14 09:05:55;;;;;;;3.10;1.33;;;13.60;99.90;;;;;;5034071;28;20540;-49
2023/04/14 09:08:22;;;;;;;3.80;1.40;;;13.60;99.90;;;;;;5033756;28;20181;-49
2023/04/14 09:10:47;;;;;;;4.80;1.30;;;13.70;99.90;;;;;;5033843;28;20636;-48
2023/04/14 09:13:15;;;;;;;5.97;1.30;;;13.70;99.90;;;;;;5033621;28;20275;-50
2023/04/14 09:15:42;;;;;;;6.47;1.67;;;13.90;99.90;;;;;;5033735;28;20173;-48
2023/04/14 09:18:09;;;;;;;4.70;1.40;;;13.90;99.90;;;;;;5034893;28;20192;-49
2023/04/14 09:20:36;;;;;;;4.97;1.30;;;14.10;99.90;;;;;;5033454;28;20193;-48
2023/04/14 09:23:03;;;;;;;4.93;1.10;;;14.10;99.90;;;;;;5033686;28;20235;-52
2023/04/14 09:25:28;;;;;;;6.37;1.30;;;14.20;99.90;;;;;;5033430;28;20169;-51
2023/04/14 09:27:54;;;;;;;7.13;1.47;;;14.20;99.90;;;;;;5033968;28;20647;-52
2023/04/14 09:30:20;;;;;;;6.57;1.93;;;14.20;99.90;;;;;;5034149;28;20236;-51
2023/04/14 09:32:52;;;;;;;4.83;1.40;;;14.20;99.90;;;;;;5037669;28;20581;-51
2023/04/14 09:35:18;;;;;;;3.43;1.13;;;14.30;99.90;;;;;;5037855;28;20572;-52
2023/04/14 09:37:45;;;;;;;5.23;1.40;;;14.40;99.90;;;;;;5037640;28;20173;-51
2023/04/14 09:40:31;;;;;;;3.60;1.17;;;14.40;99.90;;;;;;5037296;28;20663;-50
2023/04/14 09:42:57;;;;;;;6.87;1.40;;;14.40;99.90;;;;;;5037096;28;20579;-52
2023/04/14 09:45:40;;;;;;;5.80;1.50;;;14.50;99.90;;;;;;5038260;28;20177;-52
2023/04/14 09:48:07;;;;;;;6.93;1.67;;;14.60;99.90;;;;;;5037432;28;20172;-52
2023/04/14 09:50:57;;;;;;;3.03;1.17;;;14.60;99.90;;;;;;5036970;28;20691;-52
2023/04/14 09:53:35;;;;;;;6.63;1.57;;;14.70;99.90;;;;;;5037364;28;20578;-51
2023/04/14 09:56:06;;;;;;;4.83;1.50;;;14.70;99.90;;;;;;5037424;28;20176;-52
2023/04/14 09:58:37;;;;;;;5.40;1.60;;;14.80;99.90;;;;;;5036928;28;20648;-51
2023/04/14 10:01:13;;;;;;;4.63;1.57;;;14.80;99.90;;;;;;5037143;28;20188;-51
2023/04/14 10:03:41;;;;;;;5.57;1.60;;;14.80;99.90;;;;;;5037220;28;20165;-50
2023/04/14 10:06:17;;;;;;;5.70;1.63;;;14.90;99.90;;;;;;5037145;28;20234;-51
2023/04/14 10:08:46;;;;;;;3.10;1.30;;;15.00;99.90;;;;;;5037032;28;20200;-51
2023/04/14 10:11:17;;;;;;;5.67;2.00;;;15.00;99.90;;;;;;5036714;28;20188;-52
2023/04/14 10:13:52;;;;;;;4.83;1.60;;;15.10;99.90;;;;;;5036994;28;20310;-50
2023/04/14 10:16:18;;;;;;;6.40;1.80;;;15.10;99.90;;;;;;5036904;28;20172;-52
2023/04/14 10:18:44;;;;;;;5.37;1.60;;;15.30;99.90;;;;;;5036638;28;20180;-51
2023/04/14 10:21:10;;;;;;;6.80;1.77;;;15.40;99.90;;;;;;5036665;28;20299;-51
2023/04/14 10:23:38;;;;;;;3.30;1.57;;;15.40;99.90;;;;;;5036780;28;20173;-50
2023/04/14 10:26:06;;;;;;;7.13;1.90;;;15.40;99.90;;;;;;5036844;28;20264;-49
2023/04/14 10:28:34;;;;;;;7.80;1.73;;;15.50;99.90;;;;;;5036405;28;20188;-51
2023/04/14 10:31:00;;;;;;;2.47;1.60;;;15.60;99.90;;;;;;5036204;28;20200;-51
2023/04/14 10:33:27;;;;;;;5.27;1.80;;;15.70;99.90;;;;;;5036617;28;20263;-51
2023/04/14 10:35:59;;;;;;;6.40;1.30;;;15.80;99.90;;;;;;5036608;28;20177;-53
2023/04/14 10:38:42;;;;;;;5.23;1.77;;;15.80;99.90;;;;;;5036251;28;20165;-51
2023/04/14 10:41:10;;;;;;;9.47;1.80;;;15.90;99.90;;;;;;5035683;28;20663;-52
2023/04/14 10:43:36;;;;;;;4.53;1.73;;;16.00;99.90;;;;;;5036389;28;20188;-51
2023/04/14 10:46:03;;;;;;;5.07;1.50;;;16.00;99.90;;;;;;5036412;28;20181;-50
2023/04/14 10:48:34;;;;;;;5.80;1.80;;;16.10;99.90;;;;;;5036036;28;20183;-50
2023/04/14 10:51:04;;;;;;;5.87;1.87;;;16.10;99.90;;;;;;5035820;28;20668;-49
2023/04/14 10:53:36;;;;;;;5.40;1.67;;;16.10;99.90;;;;;;5035995;28;20176;-50
2023/04/14 10:56:03;;;;;;;5.57;1.97;;;16.20;99.90;;;;;;5036186;28;20181;-50
2023/04/14 10:58:29;;;;;;;7.77;1.53;;;16.30;99.90;;;;;;5036391;28;20260;-50
2023/04/14 11:00:57;;;;;;;6.53;1.93;;;16.40;99.90;;;;;;5036097;28;20212;-51
2023/04/14 11:03:23;;;;;;;5.93;1.67;;;16.50;99.90;;;;;;5035791;28;20231;-52
2023/04/14 11:05:50;;;;;;;4.47;1.70;;;16.50;99.90;;;;;;5035747;28;20189;-52
2023/04/14 11:08:25;;;;;;;7.03;1.60;;;16.60;99.90;;;;;;5036108;28;20181;-50
2023/04/14 11:11:07;;;;;;;4.90;1.60;;;16.60;99.90;;;;;;5036258;28;20197;-51
2023/04/14 11:13:33;;;;;;;4.23;1.60;;;16.70;99.90;;;;;;5036400;28;20188;-51
2023/04/14 11:16:06;;;;;;;3.30;1.30;;;16.80;99.90;;;;;;5036224;28;20177;-51
2023/04/14 11:18:36;;;;;;;3.73;1.33;;;17.00;99.90;;;;;;5036260;28;20195;-50
2023/04/14 11:21:14;;;;;;;4.40;1.37;;;17.10;99.90;;;;;;5035385;28;20215;-51
2023/04/14 11:23:41;;;;;;;3.33;1.23;;;17.10;99.90;;;;;;5050244;23;20243;-47
2023/04/14 11:26:09;;;;;;;3.63;1.20;;;17.10;99.90;;;;;;5035403;28;20173;-48
2023/04/14 11:28:37;;;;;;;3.57;1.60;;;17.00;99.90;;;;;;5035276;28;20189;-47
2023/04/14 11:31:04;;;;;;;2.70;1.07;;;17.10;99.90;;;;;;5035155;28;20279;-47
2023/04/14 11:33:32;;;;;;;3.37;1.30;;;17.10;99.90;;;;;;5035269;28;20177;-46
2023/04/14 11:36:00;;;;;;;4.67;1.30;;;17.20;99.90;;;;;;5035498;28;20192;-48
2023/04/14 11:38:26;;;;;;;2.60;1.20;;;17.10;99.90;;;;;;5035375;28;20187;-47
2023/04/14 11:40:52;;;;;;;4.37;1.30;;;17.30;99.90;;;;;;5035636;28;20188;-47
2023/04/14 11:43:18;;;;;;;9.63;1.33;;;17.40;99.90;;;;;;5035241;28;20219;-48
2023/04/14 11:45:45;;;;;;;3.03;1.23;;;17.40;99.90;;;;;;5035015;28;20185;-48
2023/04/14 11:48:12;;;;;;;3.07;1.23;;;17.40;99.90;;;;;;5035163;28;20287;-46
2023/04/14 11:50:37;;;;;;;2.50;1.17;;;17.50;99.90;;;;;;5035061;28;20283;-47
2023/04/14 11:53:19;;;;;;;4.33;1.50;;;17.50;99.90;;;;;;5034199;28;20197;-46
2023/04/14 11:55:49;;;;;;;4.77;1.30;;;17.50;99.90;;;;;;5034930;28;20179;-46
2023/04/14 11:58:23;;;;;;;3.93;1.50;;;17.30;99.90;;;;;;5035021;28;20259;-46
2023/04/14 12:00:49;;;;;;;4.17;1.60;;;17.10;99.90;;;;;;5034819;28;20226;-48
2023/04/14 12:03:15;;;;;;;5.67;1.77;;;17.10;99.90;;;;;;5034844;28;20295;-47
2023/04/14 12:05:41;;;;;;;3.53;1.23;;;17.20;99.90;;;;;;5034675;28;20215;-47
2023/04/14 12:08:08;;;;;;;4.50;1.50;;;17.50;99.90;;;;;;5034865;28;20654;-47
2023/04/14 12:10:38;;;;;;;5.43;1.53;;;17.60;99.90;;;;;;5034465;28;20196;-48
2023/04/14 12:13:09;;;;;;;2.80;1.27;;;17.50;99.90;;;;;;5034253;28;20219;-47
2023/04/14 12:15:36;;;;;;;3.50;1.40;;;17.40;99.90;;;;;;5034681;28;20326;-47
2023/04/14 12:18:12;;;;;;;3.17;1.43;;;17.30;99.90;;;;;;5034634;28;20234;-46
2023/04/14 12:20:54;;;;;;;4.07;1.50;;;17.30;99.90;;;;;;5034828;28;20176;-47
2023/04/14 12:23:20;;;;;;;3.30;1.20;;;17.20;99.90;;;;;;5034120;28;20227;-47
2023/04/14 12:25:48;;;;;;;4.67;1.50;;;17.20;99.90;;;;;;5034421;28;20185;-48
2023/04/14 12:28:27;;;;;;;2.73;1.10;;;17.20;99.90;;;;;;5034254;28;20322;-47
2023/04/14 12:30:58;;;;;;;3.50;1.30;;;17.10;99.90;;;;;;5016315;28;20219;-46
2023/04/14 12:33:26;;;;;;;5.43;1.40;;;16.90;99.90;;;;;;5016424;28;20192;-47
2023/04/14 12:35:53;;;;;;;3.43;1.10;;;16.80;99.90;;;;;;5016371;28;20185;-47
2023/04/14 12:38:26;;;;;;;3.77;1.17;;;16.90;99.90;;;;;;5034213;28;20184;-47
2023/04/14 12:40:52;;;;;;;3.10;1.20;;;17.00;99.90;;;;;;5034056;28;20253;-47
2023/04/14 12:43:30;;;;;;;3.37;1.43;;;17.10;99.90;;;;;;5033850;28;20279;-46
2023/04/14 12:45:57;;;;;;;3.53;1.40;;;17.20;99.90;;;;;;5034302;28;20271;-46
2023/04/14 12:48:37;;;;;;;2.97;1.10;;;17.30;99.90;;;;;;5033990;28;20263;-46
2023/04/14 12:51:08;;;;;;;1.47;1.00;;;17.40;99.90;;;;;;5034017;28;20203;-45
2023/04/14 12:53:33;;;;;;;2.53;1.00;;;17.50;99.90;;;;;;5034184;28;20177;-47
2023/04/14 12:56:12;;;;;;;3.40;1.40;;;17.50;99.90;;;;;;5033852;28;20250;-46
2023/04/14 12:58:42;;;;;;;3.07;1.50;;;17.40;99.90;;;;;;5034271;28;20161;-44